• Join FlightAware (Why Join?)
  • Login
  • US Flag 
05:46AM EDT


 

Airport Tracker/Info


-or-


 

Live Flight TrackerFlight Track Log ✈ EJA365 ✈ 19-Apr-2013 ✈ KRST - KONX

Flight Track Log - Related Links

Times and Time Zones

All times are in EDT time to prevent confusion due to time zone crossing. See the EJA365 flight status page for this flight to view local times or setup timezone preferences in your user account.

Time Position Orientation Groundspeed Altitude Reporting Facility
EDT Latitude Longitude Course Direction KTS MPH feet Rate Location/Type
10:19AM 43.9714 -92.5175 115° Southeast 216 249 7,000  Level Minneapolis Center
10:20AM 43.9372 -92.4189 116° Southeast 297 342 9,900 3,300 Climbing Minneapolis Center
10:21AM 43.8950 -92.2922 115° Southeast 343 395 13,900 4,020 Climbing Minneapolis Center
10:22AM 43.8489 -92.1622 116° Southeast 376 433 18,200 3,900 Climbing Minneapolis Center
10:23AM 43.7994 -92.0203 116° Southeast 401 461 21,900 3,000 Climbing Minneapolis Center
10:24AM 43.6689 -91.8234 115° Southeast  Level FlightAware Approximate
10:24AM 43.7464 -91.8742 117° Southeast 423 487 24,500  Level Minneapolis Center
10:25AM 43.6925 -91.7275 117° Southeast 429 494 27,000 1,800 Climbing Minneapolis Center
10:26AM 43.6361 -91.5803 118° Southeast 433 498 28,600 1,740 Climbing Minneapolis Center
10:27AM 43.5686 -91.3925 116° Southeast 449 517 31,000 1,980 Climbing Minneapolis Center
10:28AM 43.5003 -91.2078 117° Southeast 452 520 32,700 960 Climbing Minneapolis Center
10:29AM 43.4428 -91.0519 117° Southeast 456 525 33,000 120 Climbing Minneapolis Center
10:30AM 43.3844 -90.8953 117° Southeast 459 528 33,000  Level Minneapolis Center
10:31AM 43.3228 -90.7353 118° Southeast 468 539 33,000  Level Minneapolis Center
10:32AM 43.2753 -90.6067 117° Southeast 475 547 33,000  Level Chicago Center
10:33AM 43.2156 -90.4486 117° Southeast 470 541 33,000 720 Level Chicago Center
10:34AM 43.1561 -90.2967 118° Southeast 458 527 34,500 1,380 Climbing Chicago Center
10:35AM 43.0994 -90.1461 117° Southeast 449 517 35,900 1,200 Climbing Chicago Center
10:36AM 43.0419 -89.9975 118° Southeast 446 513 37,000 1,020 Climbing Chicago Center
10:37AM 42.9758 -89.8283 118° Southeast 444 511 38,100 960 Climbing Chicago Center
10:38AM 42.9186 -89.6806 118° Southeast 442 509 39,100 960 Climbing Chicago Center
10:39AM 42.8619 -89.5367 118° Southeast 434 499 40,100 720 Climbing Chicago Center
10:40AM 42.8044 -89.3922 118° Southeast 433 498 40,700 420 Climbing Chicago Center
10:41AM 42.7378 -89.2208 118° Southeast 440 506 41,000 120 Climbing Chicago Center
10:42AM 42.6781 -89.0714 118° Southeast 450 518 41,000  Level Chicago Center
10:43AM 42.6161 -88.9200 119° Southeast 458 527 41,000  Level Chicago Center
10:44AM 42.5547 -88.7650 118° Southeast 465 535 41,000  Level Chicago Center
10:45AM 42.4944 -88.6156 119° Southeast 458 527 41,000  Level Chicago Center
10:46AM 42.4236 -88.4403 119° Southeast 455 524 41,000  Level Chicago Center
10:47AM 42.3619 -88.2933 120° Southeast 451 519 41,000  Level Chicago Center
10:49AM 42.3083 -88.1625 119° Southeast 447 514 41,000  Level Chicago Center
10:50AM 42.2511 -88.0297 120° Southeast  Level FlightAware Approximate
10:51AM 42.1725 -87.8450 120° Southeast 444 511 41,000  Level Chicago Center
10:52AM 42.1067 -87.7069 123° Southeast 440 506 41,000  Level Chicago Center
10:53AM 42.0414 -87.5661 122° Southeast 441 507 41,000  Level Chicago Center
10:54AM 41.9761 -87.4286 123° Southeast 439 505 41,000  Level Chicago Center
10:55AM 41.9097 -87.2892 123° Southeast 442 509 41,000  Level Chicago Center
10:56AM 41.8442 -87.1508 122° Southeast 438 504 41,000  Level Chicago Center
10:57AM 41.7639 -86.9853 123° Southeast 440 506 41,000  Level Chicago Center
10:58AM 41.6981 -86.8475 123° Southeast 440 506 41,000  Level Chicago Center
10:59AM 41.6297 -86.7047 123° Southeast 440 506 41,000  Level Chicago Center
11:00AM 41.5639 -86.5681 123° Southeast 439 505 41,000  Level Chicago Center
11:01AM 41.4969 -86.4297 123° Southeast 442 509 41,000  Level Chicago Center
11:02AM 41.4311 -86.2939 123° Southeast 441 507 41,000  Level Chicago Center
11:03AM 41.3631 -86.1556 123° Southeast 445 512 41,000  Level Chicago Center
11:04AM 41.2811 -85.9900 123° Southeast 449 517 41,000  Level Chicago Center
11:05AM 41.2122 -85.8517 123° Southeast 450 518 41,000  Level Chicago Center
11:06AM 41.1425 -85.7106 123° Southeast 459 528 41,000  Level Chicago Center
11:07AM 41.0742 -85.5736 123° Southeast 453 521 41,000  Level Chicago Center
11:08AM 41.0058 -85.4372 124° Southeast 450 518 41,000  Level Chicago Center
11:09AM 40.9375 -85.3025 124° Southeast 448 516 41,000  Level Chicago Center
11:10AM 40.8544 -85.1386 124° Southeast 448 516 41,000  Level Chicago Center
11:11AM 40.7856 -85.0022 124° Southeast 448 516 41,000  Level Chicago Center
11:12AM 40.7164 -84.8667 124° Southeast 448 516 41,000  Level Chicago Center
11:13AM 40.6472 -84.7314 124° Southeast 448 516 41,000  Level Chicago Center
11:14AM 40.5939 -84.6325 125° Southeast 448 516 41,000  Level Indianapolis Center
11:15AM 40.5233 -84.4947 124° Southeast 450 518 41,000  Level Indianapolis Center
11:16AM 40.4544 -84.3589 124° Southeast 445 512 41,000  Level Indianapolis Center
11:17AM 40.3825 -84.2233 125° Southeast 447 514 41,000  Level Indianapolis Center
11:18AM 40.3119 -84.0883 124° Southeast 446 513 41,000  Level Indianapolis Center
11:19AM 40.2433 -83.9469 122° Southeast 451 519 41,000  Level Indianapolis Center
11:20AM 40.1689 -83.7769 120° Southeast 456 525 41,000  Level Indianapolis Center
11:21AM 40.1253 -83.6797 120° Southeast 459 528 41,000  Level Indianapolis Center
11:22AM 40.0364 -83.4850 121° Southeast 459 528 41,000  Level Indianapolis Center
11:23AM 39.9694 -83.3356 120° Southeast 463 533 41,000 -60 Level Indianapolis Center
11:24AM 39.9008 -83.1875 121° Southeast 465 535 40,900  Descending Indianapolis Center
11:25AM 39.8333 -83.0403 121° Southeast 464 534 41,000  Climbing Indianapolis Center
11:26AM 39.7656 -82.8947 121° Southeast 467 537 41,000  Level Indianapolis Center
11:27AM 39.6981 -82.7503 121° Southeast 464 534 41,000  Level Indianapolis Center
11:28AM 39.6308 -82.6056 121° Southeast 463 533 41,000  Level Indianapolis Center
11:29AM 39.5628 -82.4617 121° Southeast 464 534 41,000  Level Indianapolis Center
11:30AM 39.4944 -82.3167 121° Southeast 466 536 41,000  Level Indianapolis Center
11:31AM 39.4303 -82.1814 122° Southeast 466 536 41,000  Level Indianapolis Center
11:32AM 39.3619 -82.0372 121° Southeast 469 540 41,000  Level Indianapolis Center
11:33AM 39.2797 -81.8639 121° Southeast 470 541 41,000  Level Indianapolis Center
11:34AM 39.2117 -81.7211 122° Southeast 468 539 41,000  Level Indianapolis Center
11:36AM 39.1428 -81.5792 122° Southeast 464 534 41,000  Level Indianapolis Center
11:37AM 39.0742 -81.4367 122° Southeast 464 534 41,000  Level Indianapolis Center
11:38AM 39.0053 -81.2947 122° Southeast 462 532 41,000  Level Indianapolis Center
11:39AM 38.9358 -81.1536 122° Southeast 461 531 41,000  Level Indianapolis Center
11:40AM 38.8669 -81.0136 122° Southeast 459 528 41,000  Level Indianapolis Center
11:41AM 38.7972 -80.8742 123° Southeast 460 529 41,000  Level Indianapolis Center
11:42AM 38.7314 -80.7392 122° Southeast 450 518 41,000  Level Indianapolis Center
11:43AM 38.6636 -80.6028 122° Southeast 451 519 41,000  Level Indianapolis Center
11:44AM 38.5950 -80.4653 123° Southeast 457 526 41,000 -360 Level Indianapolis Center
11:45AM 38.5208 -80.3169 123° Southeast 461 531 40,300 -840 Descending Indianapolis Center
11:45AM 38.4931 -80.2686 126° Southeast 458 527 39,900 -1,140 Descending Washington Center
11:46AM 38.4233 -80.1289 122° Southeast 458 527 38,900 -960 Descending Washington Center
11:47AM 38.3533 -79.9922 123° Southeast 458 527 38,000 -960 Descending Washington Center
11:48AM 38.2911 -79.8669 122° Southeast 458 527 37,000 -1,200 Descending Washington Center
11:49AM 38.2228 -79.7333 123° Southeast 458 527 35,700 -1,620 Descending Washington Center
11:50AM 38.1564 -79.6031 123° Southeast 452 520 33,800 -1,980 Descending Washington Center
11:51AM 38.0878 -79.4675 123° Southeast 452 520 31,800 -2,100 Descending Washington Center
11:52AM 38.0111 -79.3186 123° Southeast 462 532 29,700 -1,440 Descending Washington Center
11:53AM 37.9422 -79.1861 123° Southeast 462 532 29,000 -360 Descending Washington Center
11:54AM 37.8769 -79.0592 123° Southeast 450 518 29,000  Level Washington Center
11:55AM 37.8097 -78.9378 125° Southeast 439 505 29,000  Level Washington Center
11:56AM 37.7439 -78.8194 125° Southeast 427 491 29,000  Level Washington Center
11:57AM 37.6844 -78.7092 124° Southeast 415 478 29,000  Level Washington Center
11:58AM 37.6189 -78.5781 122° Southeast 423 487 29,000  Level Washington Center
11:59AM 37.5661 -78.4319 114° Southeast 444 511 29,000  Level Washington Center
12:00PM 37.5092 -78.2806 115° Southeast 463 533 29,000  Level Washington Center
12:01PM 37.4558 -78.1400 116° Southeast 463 533 29,000 -300 Level Washington Center
12:02PM 37.4025 -77.9944 115° Southeast 456 525 28,500 -540 Descending Washington Center
12:03PM 37.3508 -77.8569 115° Southeast 451 519 28,000 -300 Descending Washington Center
12:04PM 37.3014 -77.7222 115° Southeast 440 506 28,000 -780 Level Washington Center
12:05PM 37.2475 -77.5800 115° Southeast 440 506 26,500 -1,500 Descending Washington Center
12:06PM 37.1914 -77.4350 116° Southeast 445 512 25,000 -1,620 Descending Washington Center
12:07PM 37.1531 -77.3403 117° Southeast 456 525 23,900 -1,740 Descending Washington Center
12:07PM 37.1331 -77.2800 113° Southeast 445 512 23,300 -1,500 Descending Washington Center
12:08PM 37.0908 -77.1722 116° Southeast 434 499 22,100 -1,560 Descending Washington Center
12:09PM 37.0422 -77.0439 115° Southeast 404 465 20,500 -1,800 Descending Washington Center
12:10PM 36.9878 -76.8972 115° Southeast 404 465 18,200 -2,040 Descending Washington Center
12:11PM 36.9389 -76.7717 116° Southeast 393 452 16,100 -2,100 Descending Washington Center
12:11PM 36.9225 -76.7247 114° Southeast 391 450 15,200 -2,040 Descending Washington Center
12:12PM 36.8942 -76.6567 117° Southeast 381 438 14,100 -2,100 Descending Washington Center
12:13PM 36.8694 -76.5942 116° Southeast 366 421 12,900 -1,920 Descending Washington Center
12:13PM 36.8492 -76.5419 116° Southeast 375 432 12,200 -1,800 Descending Washington Center
12:14PM 36.8225 -76.4742 116° Southeast 356 410 10,900 -1,740 Descending Washington Center
12:15PM 36.7856 -76.3778 116° Southeast 302 348 9,300 -1,620 Descending Washington Center
12:16PM 36.7467 -76.2736 115° Southeast 280 322 7,500 -1,680 Descending Washington Center
12:17PM 36.7136 -76.1931 117° Southeast 284 327 5,900 -1,560 Descending Washington Center
12:18PM 36.6828 -76.1150 116° Southeast 253 291 4,600 -1,260 Descending Washington Center
12:19PM 36.6558 -76.0475 116° Southeast 236 272 3,500 -1,260 Descending Washington Center
12:20PM 36.6247 -75.9697 116° Southeast 225 259 2,200 -780 Descending Washington Center
12:21PM 36.5936 -75.9153 125° Southeast 200 230 2,000 -120 Descending Washington Center
12:22PM 36.5542 -75.8867 150° Southeast 167 192 2,000  Level Washington Center
12:23PM 36.5164 -75.9150 211° Southwest 158 182 2,000  Level Washington Center